Time;durP1;ratioP1;P1;durP2;ratioP2;P2;SDS_P1;SDS_P2;PMS_P1;PMS_P2;Temp;Humidity;BMP_temperature;BMP_pressure;BME280_temperature;BME280_humidity;BME280_pressure;Samples;Min_cycle;Max_cycle;Signal;HPM_P1;HPM_P2
2021/08/31 00:01:01;;;;;;;0.28;0.28;;;;;;;15.28;54.88;92655.47;4985960;28;20487;-94
2021/08/31 00:03:26;;;;;;;0.68;0.45;;;;;;;15.23;55.02;92659.03;5024670;28;20046;-93
2021/08/31 00:05:57;;;;;;;0.40;0.40;;;;;;;15.21;55.31;92658.56;4982504;28;20072;-94
2021/08/31 00:08:26;;;;;;;0.40;0.40;;;;;;;15.13;58.58;92648.78;5014307;28;20049;-93
2021/08/31 00:11:00;;;;;;;0.22;0.22;;;;;;;15.08;58.78;92648.94;5001793;28;20044;-93
2021/08/31 00:13:32;;;;;;;0.65;0.63;;;;;;;15.02;59.26;92643.06;5016758;28;20049;-93
2021/08/31 00:16:06;;;;;;;0.60;0.50;;;;;;;15.00;60.20;92639.94;5001409;28;20052;-93
2021/08/31 00:18:37;;;;;;;0.63;0.50;;;;;;;15.04;60.99;92661.19;5000394;28;20050;-94
2021/08/31 00:21:05;;;;;;;2.60;0.80;;;;;;;14.90;61.43;92658.69;5017215;28;20307;-93
2021/08/31 00:23:31;;;;;;;0.40;0.40;;;;;;;14.91;62.64;92665.53;5017222;28;20030;-92
2021/08/31 00:26:04;;;;;;;0.38;0.38;;;;;;;14.75;62.77;92657.28;5001357;28;20073;-93
2021/08/31 00:28:32;;;;;;;0.85;0.60;;;;;;;14.70;62.81;92665.31;4997054;28;20105;-93
2021/08/31 00:31:08;;;;;;;0.73;0.50;;;;;;;14.67;62.77;92671.97;5014830;28;20453;-93
2021/08/31 00:33:45;;;;;;;0.50;0.50;;;;;;;14.61;62.89;92657.38;5011462;28;20076;-93
2021/08/31 00:36:13;;;;;;;0.60;0.60;;;;;;;14.67;63.57;92669.34;4987324;28;20138;-93
2021/08/31 00:38:41;;;;;;;0.47;0.38;;;;;;;14.64;63.98;92669.19;4997120;28;20058;-94
2021/08/31 00:41:15;;;;;;;0.30;0.30;;;;;;;14.64;64.33;92669.97;5014435;28;20471;-95
2021/08/31 00:44:01;;;;;;;1.58;1.00;;;;;;;14.67;64.40;92677.25;4984386;28;20046;-93
2021/08/31 00:46:29;;;;;;;1.15;0.95;;;;;;;14.63;65.62;92678.16;4971412;28;20038;-92
2021/08/31 00:49:00;;;;;;;0.75;0.68;;;;;;;14.67;65.08;92685.16;4998948;28;20128;-93
2021/08/31 00:51:28;;;;;;;1.35;0.77;;;;;;;14.65;64.88;92679.41;5000326;28;20061;-94
2021/08/31 00:54:01;;;;;;;2.13;0.93;;;;;;;14.66;65.14;92675.72;4999491;28;20045;-93
2021/08/31 00:56:37;;;;;;;1.13;0.80;;;;;;;14.65;65.41;92666.22;4981889;28;20054;-94
2021/08/31 00:59:18;;;;;;;0.98;0.65;;;;;;;14.62;65.69;92658.94;4982010;28;20077;-93
2021/08/31 01:02:08;;;;;;;;;;;;;;;;;;;;;
2021/08/31 01:04:44;;;;;;;0.50;0.50;;;;;;;14.58;66.10;92663.28;5035888;28;20055;-93
2021/08/31 01:07:13;;;;;;;0.30;0.30;;;;;;;14.57;65.99;92665.13;5001618;28;20095;-94
2021/08/31 01:09:50;;;;;;;1.63;0.88;;;;;;;14.59;66.66;92656.94;5016425;28;20037;-93
2021/08/31 01:12:19;;;;;;;0.40;0.40;;;;;;;14.63;65.87;92657.09;4998336;28;20077;-93
2021/08/31 01:14:48;;;;;;;1.08;0.73;;;;;;;14.71;64.99;92667.66;5000653;28;20033;-93
2021/08/31 01:17:30;;;;;;;1.52;0.52;;;;;;;14.83;63.97;92661.78;4983681;28;20042;-94
2021/08/31 01:20:06;;;;;;;0.40;0.40;;;;;;;14.89;64.43;92654.50;5002256;28;20080;-94
2021/08/31 01:22:37;;;;;;;0.93;0.65;;;;;;;14.95;65.23;92654.06;5001650;28;20493;-93
2021/08/31 01:25:08;;;;;;;0.40;0.40;;;;;;;15.06;66.11;92659.78;5012523;28;20049;-93
2021/08/31 01:27:37;;;;;;;1.25;0.80;;;;;;;14.95;66.00;92655.91;4995511;28;20104;-93
2021/08/31 01:30:18;;;;;;;0.57;0.57;;;;;;;14.78;68.19;92654.03;5019495;28;20067;-93
2021/08/31 01:32:44;;;;;;;0.65;0.57;;;;;;;14.69;69.60;92656.63;5028772;28;20098;-94
2021/08/31 01:35:35;;;;;;;0.88;0.60;;;;;;;14.71;69.86;92667.66;5004558;28;20032;-95
2021/08/31 01:38:02;;;;;;;0.63;0.40;;;;;;;14.68;69.90;92670.13;5025976;28;20026;-94
2021/08/31 01:40:47;;;;;;;0.35;0.35;;;;;;;14.62;69.76;92666.84;4999621;28;20050;-96
2021/08/31 01:43:28;;;;;;;0.45;0.40;;;;;;;14.55;70.09;92669.94;5013997;28;20030;-95
2021/08/31 01:45:54;;;;;;;0.73;0.52;;;;;;;14.47;70.25;92667.25;5019422;28;20050;-96
2021/08/31 01:48:33;;;;;;;;;;;;;;;;;;;;;
2021/08/31 01:51:01;;;;;;;0.68;0.50;;;;;;;14.37;71.23;92671.72;5029875;28;20053;-96
2021/08/31 01:53:39;;;;;;;;;;;;;;;;;;;;;
2021/08/31 01:56:20;;;;;;;0.73;0.70;;;;;;;14.30;71.07;92668.75;5020187;28;20042;-95
2021/08/31 01:58:46;;;;;;;1.02;0.63;;;;;;;14.34;70.69;92679.44;5019133;28;20068;-96
2021/08/31 02:01:19;;;;;;;1.10;0.60;;;;;;;14.31;70.32;92672.91;5007027;28;20158;-94
2021/08/31 02:03:52;;;;;;;1.00;0.73;;;;;;;14.28;69.89;92673.53;4982226;28;20034;-96
2021/08/31 02:06:22;;;;;;;0.68;0.55;;;;;;;14.30;69.93;92681.91;4976969;28;20125;-94
2021/08/31 02:08:52;;;;;;;0.52;0.50;;;;;;;14.31;70.06;92680.03;4999927;28;20046;-95
2021/08/31 02:11:28;;;;;;;0.55;0.43;;;;;;;14.26;70.39;92667.03;4995750;28;20065;-94
2021/08/31 02:14:03;;;;;;;0.68;0.65;;;;;;;14.28;71.45;92663.00;4980918;28;20475;-95
2021/08/31 02:16:38;;;;;;;0.63;0.52;;;;;;;14.28;71.43;92665.63;4978603;28;20377;-93
2021/08/31 02:19:04;;;;;;;1.08;0.77;;;;;;;14.40;71.83;92675.59;4980582;28;20054;-93
2021/08/31 02:21:30;;;;;;;0.60;0.60;;;;;;;14.31;72.11;92664.25;4996330;28;20108;-94
2021/08/31 02:24:10;;;;;;;;;;;;;;;;;;;;;
2021/08/31 02:26:48;;;;;;;0.75;0.73;;;;;;;14.38;72.37;92667.97;4974571;28;20507;-93
2021/08/31 02:29:16;;;;;;;0.57;0.57;;;;;;;14.38;72.14;92670.63;4980559;28;20060;-93
2021/08/31 02:32:12;;;;;;;0.88;0.73;;;;;;;14.39;72.15;92674.03;4981895;28;20052;-93
2021/08/31 02:34:45;;;;;;;1.50;0.80;;;;;;;14.34;72.67;92668.91;4982511;28;20038;-93
2021/08/31 02:37:11;;;;;;;1.13;0.80;;;;;;;14.31;72.85;92665.00;4992470;28;20447;-93
2021/08/31 02:39:47;;;;;;;1.65;0.90;;;;;;;14.21;72.97;92662.66;5016073;28;20134;-93
2021/08/31 02:42:18;;;;;;;1.67;0.90;;;;;;;14.24;74.46;92672.59;4964730;28;20490;-93
2021/08/31 02:44:48;;;;;;;1.10;0.65;;;;;;;14.21;74.63;92667.94;5003469;28;20468;-93
2021/08/31 02:47:34;;;;;;;;;;;;;;;;;;;;;
2021/08/31 02:50:00;;;;;;;1.15;0.70;;;;;;;14.14;74.45;92663.09;4999000;28;20108;-93
2021/08/31 02:52:28;;;;;;;1.10;0.88;;;;;;;14.00;75.17;92651.88;4999991;28;20046;-94
2021/08/31 02:54:54;;;;;;;1.98;0.85;;;;;;;13.95;75.09;92655.41;4980703;28;20089;-92
2021/08/31 02:57:28;;;;;;;1.20;0.77;;;;;;;13.97;75.08;92665.66;4980509;28;20081;-93
2021/08/31 02:59:53;;;;;;;0.73;0.70;;;;;;;13.90;75.17;92649.53;4999195;28;20069;-94
2021/08/31 03:02:24;;;;;;;0.73;0.60;;;;;;;13.81;74.78;92652.09;4980699;28;20070;-93
2021/08/31 03:04:52;;;;;;;0.68;0.55;;;;;;;13.77;74.80;92659.03;5005723;28;20066;-94
2021/08/31 03:07:27;;;;;;;2.33;0.93;;;;;;;13.69;74.77;92651.84;4967227;28;20467;-93
2021/08/31 03:10:15;;;;;;;0.68;0.60;;;;;;;13.61;74.30;92652.59;4981399;28;20041;-92
2021/08/31 03:12:41;;;;;;;0.35;0.32;;;;;;;13.62;74.36;92662.03;4949870;28;20042;-93
2021/08/31 03:15:15;;;;;;;2.65;1.13;;;;;;;13.49;73.68;92659.19;4993548;28;20430;-94
2021/08/31 03:17:43;;;;;;;0.32;0.32;;;;;;;13.44;72.78;92661.94;4983506;28;20057;-94
2021/08/31 03:20:12;;;;;;;0.60;0.57;;;;;;;13.41;71.58;92670.41;5000436;28;20121;-93
2021/08/31 03:22:57;;;;;;;1.83;0.68;;;;;;;13.29;69.70;92664.91;4983197;28;20077;-92
2021/08/31 03:25:27;;;;;;;0.32;0.30;;;;;;;13.23;68.94;92655.56;4983561;28;20070;-92
2021/08/31 03:27:53;;;;;;;0.40;0.40;;;;;;;13.25;68.93;92669.94;4982159;28;20057;-93
2021/08/31 03:30:29;;;;;;;0.93;0.45;;;;;;;13.12;69.34;92657.63;4983263;28;20044;-92
2021/08/31 03:32:57;;;;;;;0.60;0.57;;;;;;;13.14;70.00;92663.38;4998121;28;20113;-92
2021/08/31 03:35:28;;;;;;;0.95;0.73;;;;;;;13.03;70.70;92659.41;5015939;28;20065;-94
2021/08/31 03:37:57;;;;;;;0.60;0.50;;;;;;;13.00;70.96;92666.03;4981885;28;20127;-93
2021/08/31 03:40:33;;;;;;;0.93;0.68;;;;;;;12.96;71.99;92670.31;5000271;28;20029;-94
2021/08/31 03:43:03;;;;;;;0.38;0.35;;;;;;;12.93;72.68;92684.06;5014871;28;20464;-92
2021/08/31 03:45:44;;;;;;;0.90;0.70;;;;;;;12.88;73.33;92671.03;4997831;28;20048;-94
2021/08/31 03:48:13;;;;;;;0.47;0.47;;;;;;;12.79;74.09;92663.09;4996939;28;20087;-93
2021/08/31 03:50:39;;;;;;;0.88;0.75;;;;;;;12.82;74.53;92677.47;4981706;28;20040;-93
2021/08/31 03:53:10;;;;;;;0.50;0.45;;;;;;;12.73;75.08;92681.88;5015832;28;20073;-93
2021/08/31 03:55:43;;;;;;;0.70;0.68;;;;;;;12.69;75.98;92679.81;4980770;28;20104;-92
2021/08/31 03:58:16;;;;;;;0.40;0.40;;;;;;;12.74;75.73;92683.41;4987260;28;20117;-92
2021/08/31 04:00:47;;;;;;;1.25;0.70;;;;;;;12.61;75.83;92674.47;4947014;28;20495;-93
2021/08/31 04:03:17;;;;;;;8.98;1.15;;;;;;;12.55;76.44;92681.69;4964699;28;20130;-92
2021/08/31 04:05:54;;;;;;;0.50;0.47;;;;;;;12.47;76.25;92680.53;5015215;28;20100;-92
2021/08/31 04:08:20;;;;;;;1.17;0.93;;;;;;;12.46;75.98;92694.72;4996992;28;20052;-93
2021/08/31 04:10:46;;;;;;;0.68;0.65;;;;;;;12.44;75.78;92693.44;4998005;28;20050;-93
2021/08/31 04:13:13;;;;;;;0.82;0.70;;;;;;;12.37;75.71;92693.06;4997228;28;20385;-94
2021/08/31 04:15:59;;;;;;;0.52;0.50;;;;;;;12.32;76.06;92685.28;4986319;28;20048;-93
2021/08/31 04:18:27;;;;;;;0.80;0.70;;;;;;;12.27;76.18;92691.38;4983101;28;20042;-93
2021/08/31 04:20:58;;;;;;;0.47;0.47;;;;;;;12.18;76.36;92683.44;4998064;28;20049;-93
2021/08/31 04:23:31;;;;;;;0.82;0.80;;;;;;;12.26;76.95;92701.13;4995464;28;20480;-94
2021/08/31 04:26:08;;;;;;;2.05;1.48;;;;;;;12.18;77.80;92691.31;4979442;28;20062;-92
2021/08/31 04:28:44;;;;;;;0.50;0.50;;;;;;;12.18;78.94;92691.31;4979400;28;20054;-91
2021/08/31 04:31:13;;;;;;;0.93;0.68;;;;;;;12.16;78.65;92688.19;4963077;28;20065;-92
2021/08/31 04:33:43;;;;;;;0.57;0.52;;;;;;;12.12;78.68;92689.84;4980327;28;20061;-93
2021/08/31 04:36:14;;;;;;;0.75;0.70;;;;;;;12.08;78.54;92696.72;5003003;28;20723;-93
2021/08/31 04:38:43;;;;;;;0.30;0.30;;;;;;;12.05;78.86;92698.09;4997789;28;20053;-94
2021/08/31 04:41:14;;;;;;;0.25;0.25;;;;;;;12.09;79.12;92700.91;4996117;28;20037;-94
2021/08/31 04:43:50;;;;;;;0.65;0.60;;;;;;;12.06;78.45;92693.59;4989634;28;20502;-91
2021/08/31 04:46:18;;;;;;;1.08;0.95;;;;;;;12.02;79.28;92692.63;5000628;28;20148;-94
2021/08/31 04:48:44;;;;;;;0.73;0.57;;;;;;;12.06;80.27;92688.38;4957758;28;20094;-95
2021/08/31 04:51:09;;;;;;;0.77;0.65;;;;;;;12.12;80.37;92692.47;4981569;28;20140;-95
2021/08/31 04:53:38;;;;;;;0.40;0.40;;;;;;;12.11;80.59;92695.38;4971049;28;20042;-94
2021/08/31 04:56:08;;;;;;;0.82;0.70;;;;;;;12.18;80.65;92698.38;4976878;28;20043;-94
2021/08/31 04:58:44;;;;;;;1.15;1.05;;;;;;;12.18;80.22;92690.50;4993176;28;20076;-95
2021/08/31 05:01:18;;;;;;;0.75;0.60;;;;;;;12.16;80.18;92690.81;4996450;28;20046;-92
2021/08/31 05:03:56;;;;;;;;;;;;;;;;;;;;;
2021/08/31 05:06:23;;;;;;;2.15;1.10;;;;;;;12.22;80.42;92710.63;4967394;28;20050;-94
2021/08/31 05:08:52;;;;;;;0.60;0.60;;;;;;;12.23;80.29;92706.97;5008994;28;20412;-92
2021/08/31 05:11:21;;;;;;;1.00;0.80;;;;;;;12.20;79.58;92704.88;4972599;28;20050;-94
2021/08/31 05:13:52;;;;;;;0.65;0.65;;;;;;;12.28;79.73;92708.72;4979542;28;20040;-95
2021/08/31 05:16:23;;;;;;;0.73;0.73;;;;;;;12.32;79.55;92703.66;4996023;28;20724;-95
2021/08/31 05:18:48;;;;;;;1.00;0.85;;;;;;;12.44;78.69;92719.69;4995872;28;20045;-94
2021/08/31 05:21:17;;;;;;;0.40;0.40;;;;;;;12.51;78.31;92722.72;4988615;28;20145;-94
2021/08/31 05:23:48;;;;;;;0.75;0.60;;;;;;;12.57;76.69;92712.91;4977389;28;20133;-93
2021/08/31 05:26:16;;;;;;;1.42;1.00;;;;;;;12.63;75.98;92715.16;4991567;28;20054;-94
2021/08/31 05:28:44;;;;;;;0.73;0.60;;;;;;;12.66;75.45;92709.28;4981449;28;20045;-95
2021/08/31 05:31:22;;;;;;;;;;;;;;;;;;;;;
2021/08/31 05:33:51;;;;;;;0.40;0.40;;;;;;;12.89;75.10;92717.25;4998412;28;20072;-95
2021/08/31 05:36:22;;;;;;;1.05;0.73;;;;;;;13.09;76.13;92722.06;4995951;28;20030;-94
2021/08/31 05:38:58;;;;;;;0.65;0.60;;;;;;;13.23;76.32;92727.31;4981922;28;20454;-94
2021/08/31 05:41:36;;;;;;;1.00;0.80;;;;;;;13.40;75.46;92712.78;4977179;28;20411;-95
2021/08/31 05:44:09;;;;;;;0.70;0.70;;;;;;;13.60;74.79;92720.22;4976863;28;20397;-95
2021/08/31 05:46:42;;;;;;;0.90;0.60;;;;;;;13.76;74.60;92723.28;4993594;28;20086;-95
2021/08/31 05:49:13;;;;;;;0.50;0.50;;;;;;;13.88;74.63;92723.50;4977078;28;20120;-95
2021/08/31 05:51:41;;;;;;;0.63;0.63;;;;;;;13.95;74.08;92723.84;4961474;28;20141;-94
2021/08/31 05:54:11;;;;;;;0.60;0.60;;;;;;;14.13;73.42;92729.22;4982652;28;20135;-95
2021/08/31 05:56:37;;;;;;;1.00;0.70;;;;;;;14.24;73.01;92730.50;4989910;28;20066;-94
2021/08/31 05:59:10;;;;;;;0.63;0.57;;;;;;;14.33;72.14;92727.91;4981023;28;20041;-95
2021/08/31 06:01:36;;;;;;;0.65;0.52;;;;;;;14.52;71.11;92722.41;4983442;28;20054;-94
2021/08/31 06:04:02;;;;;;;1.67;0.90;;;;;;;14.67;70.50;92722.03;4981281;28;20527;-95
2021/08/31 06:06:30;;;;;;;0.68;0.63;;;;;;;15.02;70.17;92734.53;4988926;28;20045;-94
2021/08/31 06:09:00;;;;;;;1.05;0.80;;;;;;;15.25;69.84;92724.66;4992926;28;20116;-94
2021/08/31 06:11:29;;;;;;;1.15;0.80;;;;;;;15.58;68.95;92722.31;4995657;28;20129;-94
2021/08/31 06:13:56;;;;;;;2.28;0.75;;;;;;;15.96;67.94;92732.25;4995518;28;20036;-95
2021/08/31 06:16:30;;;;;;;2.05;1.20;;;;;;;17.32;65.23;92726.34;4983305;28;20573;-95
2021/08/31 06:18:58;;;;;;;0.60;0.60;;;;;;;21.08;53.50;92726.28;4986502;28;20057;-95
2021/08/31 06:21:24;;;;;;;1.17;0.93;;;;;;;23.59;45.50;92725.53;5035945;28;20033;-96
2021/08/31 06:23:55;;;;;;;1.00;0.90;;;;;;;25.25;42.02;92724.25;4997485;28;20045;-96
2021/08/31 06:26:21;;;;;;;1.23;1.00;;;;;;;26.44;39.03;92717.56;4998232;28;20125;-96
2021/08/31 06:28:46;;;;;;;1.08;0.80;;;;;;;26.78;38.54;92722.63;4984437;28;20719;-95
2021/08/31 06:31:12;;;;;;;1.25;1.02;;;;;;;27.05;37.82;92725.72;4982939;28;20133;-95
2021/08/31 06:33:50;;;;;;;1.20;0.95;;;;;;;27.12;36.28;92723.03;4998871;28;20038;-94
2021/08/31 06:36:33;;;;;;;1.30;1.10;;;;;;;25.91;38.96;92721.59;4999803;28;20042;-96
2021/08/31 06:39:05;;;;;;;1.52;1.00;;;;;;;27.54;36.46;92726.88;4984894;28;20462;-96
2021/08/31 06:41:46;;;;;;;1.52;1.10;;;;;;;29.42;33.03;92728.25;4992218;28;20058;-94
2021/08/31 06:44:21;;;;;;;3.90;1.33;;;;;;;29.91;32.18;92722.78;4985623;28;20038;-96
2021/08/31 06:46:58;;;;;;;1.77;1.30;;;;;;;29.86;31.39;92725.94;4983877;28;20065;-96
2021/08/31 06:49:26;;;;;;;1.33;1.00;;;;;;;29.02;33.05;92724.31;5019967;28;20085;-96
2021/08/31 06:51:56;;;;;;;0.80;0.80;;;;;;;25.40;38.78;92735.84;4984341;28;20046;-96
2021/08/31 06:54:25;;;;;;;0.70;0.70;;;;;;;22.80;45.04;92738.47;4983369;28;20612;-96
2021/08/31 06:57:05;;;;;;;1.83;0.82;;;;;;;21.75;48.40;92745.66;4992045;28;20058;-96
2021/08/31 06:59:36;;;;;;;1.48;0.80;;;;;;;20.51;51.09;92741.59;4970807;28;20096;-94
2021/08/31 07:02:12;;;;;;;0.73;0.60;;;;;;;19.95;52.74;92731.81;4984087;28;20040;-96
2021/08/31 07:04:47;;;;;;;0.45;0.45;;;;;;;19.78;51.72;92740.81;5002961;28;20082;-95
2021/08/31 07:07:39;;;;;;;1.05;0.80;;;;;;;19.42;52.88;92737.09;5009722;28;20049;-96
2021/08/31 07:10:08;;;;;;;3.83;0.73;;;;;;;19.35;55.33;92732.34;4990825;28;20053;-96
2021/08/31 07:12:47;;;;;;;1.02;0.70;;;;;;;18.88;57.25;92740.78;5004239;28;20042;-96
2021/08/31 07:15:16;;;;;;;0.63;0.52;;;;;;;18.36;57.60;92733.41;5004649;28;20049;-96
2021/08/31 07:17:49;;;;;;;4.43;1.00;;;;;;;18.06;57.29;92733.53;4985883;28;20133;-95
2021/08/31 07:20:25;;;;;;;1.02;0.70;;;;;;;18.05;58.68;92729.34;4983115;28;20045;-94
2021/08/31 07:22:59;;;;;;;0.80;0.60;;;;;;;18.07;57.41;92732.44;5000757;28;20077;-96
2021/08/31 07:25:27;;;;;;;0.60;0.60;;;;;;;18.18;57.00;92738.09;5018971;28;20530;-95
2021/08/31 07:27:56;;;;;;;0.20;0.20;;;;;;;18.05;57.94;92739.16;5003647;28;20050;-96
2021/08/31 07:30:24;;;;;;;0.95;0.60;;;;;;;18.35;57.52;92737.16;5002902;28;20042;-95
2021/08/31 07:32:53;;;;;;;1.13;0.70;;;;;;;18.33;58.04;92747.31;4977891;28;20270;-95
2021/08/31 07:35:19;;;;;;;0.93;0.70;;;;;;;18.09;58.95;92737.41;4989446;28;20046;-96
2021/08/31 07:37:48;;;;;;;0.88;0.75;;;;;;;17.95;60.43;92743.00;5007372;28;20402;-95
2021/08/31 07:40:14;;;;;;;0.85;0.68;;;;;;;18.35;58.69;92739.81;5018390;28;20052;-94
2021/08/31 07:42:43;;;;;;;0.90;0.65;;;;;;;18.87;57.99;92747.22;5019337;28;20120;-95
2021/08/31 07:45:14;;;;;;;0.73;0.50;;;;;;;18.59;58.32;92733.00;5012589;28;20104;-96
2021/08/31 07:47:45;;;;;;;0.60;0.60;;;;;;;18.96;59.05;92735.69;4999630;28;20404;-96
2021/08/31 07:50:11;;;;;;;0.57;0.55;;;;;;;18.50;58.23;92736.50;4982940;28;20054;-96
2021/08/31 07:52:49;;;;;;;1.58;0.95;;;;;;;18.73;57.37;92736.09;4984766;28;20030;-94
2021/08/31 07:55:18;;;;;;;1.38;0.85;;;;;;;18.80;58.46;92738.22;4986849;28;20434;-96
2021/08/31 07:57:51;;;;;;;1.17;0.75;;;;;;;18.40;59.13;92742.25;5016727;28;20064;-96
2021/08/31 08:00:20;;;;;;;0.73;0.73;;;;;;;18.78;58.20;92741.25;5036646;28;20494;-96
2021/08/31 08:03:01;;;;;;;0.40;0.40;;;;;;;19.70;56.76;92753.13;4982277;28;20051;-96
2021/08/31 08:05:29;;;;;;;0.68;0.63;;;;;;;19.61;55.72;92739.19;5002900;28;20069;-96
2021/08/31 08:07:55;;;;;;;1.05;0.70;;;;;;;19.37;56.38;92749.84;4983229;28;20038;-96
2021/08/31 08:10:40;;;;;;;0.88;0.60;;;;;;;19.51;56.16;92755.56;4986387;28;20045;-96
2021/08/31 08:13:11;;;;;;;0.40;0.40;;;;;;;18.90;57.06;92746.53;4997804;28;20046;-95
2021/08/31 08:15:47;;;;;;;0.63;0.50;;;;;;;18.51;59.44;92753.97;4979110;28;20077;-94
2021/08/31 08:18:16;;;;;;;0.80;0.35;;;;;;;18.46;58.66;92762.16;4952020;28;20042;-96
2021/08/31 08:20:46;;;;;;;0.63;0.50;;;;;;;18.35;59.18;92739.81;4977139;28;20042;-95
2021/08/31 08:23:15;;;;;;;2.92;0.70;;;;;;;18.22;59.37;92762.09;4996488;28;20085;-93
2021/08/31 08:25:46;;;;;;;;;;;;;;;18.23;59.65;92758.31;4962813;28;20504;-94
2021/08/31 08:28:14;;;;;;;0.52;0.52;;;;;;;17.89;59.24;92760.94;4977311;28;19913;-94
2021/08/31 08:30:43;;;;;;;1.40;0.60;;;;;;;18.28;60.48;92756.25;4980343;28;20207;-95
2021/08/31 08:33:14;;;;;;;0.30;0.30;;;;;;;18.33;58.88;92755.28;4980135;28;20478;-94
2021/08/31 08:35:50;;;;;;;2.17;1.10;;;;;;;18.63;58.26;92755.88;4979001;28;20050;-95
2021/08/31 08:38:23;;;;;;;1.17;0.70;;;;;;;18.71;57.23;92757.66;4977758;28;20097;-93
2021/08/31 08:40:55;;;;;;;0.65;0.55;;;;;;;18.84;58.18;92770.94;4961184;28;20106;-94
2021/08/31 08:43:29;;;;;;;1.60;1.05;;;;;;;18.51;57.78;92753.97;4997377;28;20034;-94
2021/08/31 08:46:02;;;;;;;1.30;0.88;;;;;;;18.54;57.84;92762.38;4997013;28;20057;-94
2021/08/31 08:48:32;;;;;;;0.98;0.70;;;;;;;17.97;60.17;92771.78;4996840;28;20077;-93
2021/08/31 08:51:09;;;;;;;0.40;0.40;;;;;;;18.49;58.18;92761.47;4981257;28;20037;-93
2021/08/31 08:53:37;;;;;;;1.52;0.85;;;;;;;18.83;57.89;92754.28;5006727;28;20047;-93
2021/08/31 08:56:03;;;;;;;0.30;0.30;;;;;;;18.84;55.67;92757.69;4977514;28;20565;-94
2021/08/31 08:58:39;;;;;;;0.20;0.20;;;;;;;19.19;55.87;92757.28;4976509;28;20129;-93
2021/08/31 09:01:13;;;;;;;0.52;0.47;;;;;;;18.62;56.34;92762.28;4979366;28;20077;-94
2021/08/31 09:03:59;;;;;;;0.43;0.43;;;;;;;18.91;56.23;92758.72;4997295;28;20108;-93
2021/08/31 09:06:32;;;;;;;1.77;0.70;;;;;;;19.04;55.95;92764.78;4996234;28;20049;-94
2021/08/31 09:09:06;;;;;;;0.30;0.30;;;;;;;19.25;54.41;92761.22;4980823;28;20081;-94
2021/08/31 09:11:46;;;;;;;0.35;0.35;;;;;;;19.50;53.37;92762.00;4980109;28;20042;-94
2021/08/31 09:14:36;;;;;;;0.40;0.40;;;;;;;19.66;55.29;92767.38;4996258;28;20093;-94
2021/08/31 09:17:11;;;;;;;0.50;0.40;;;;;;;19.54;51.44;92776.13;4989488;28;20049;-94
2021/08/31 09:19:46;;;;;;;0.93;0.70;;;;;;;19.78;55.49;92770.03;5000204;28;20077;-93
2021/08/31 09:22:33;;;;;;;4.50;1.35;;;;;;;19.73;54.63;92765.72;4999688;28;20041;-95
2021/08/31 09:25:13;;;;;;;1.02;0.80;;;;;;;19.88;53.70;92758.94;4991051;28;20042;-94
2021/08/31 09:27:45;;;;;;;0.82;0.55;;;;;;;19.85;54.25;92756.19;4995651;28;20149;-95
2021/08/31 09:30:22;;;;;;;0.70;0.70;;;;;;;19.74;54.48;92761.94;5004535;28;20052;-94
2021/08/31 09:33:09;;;;;;;0.35;0.32;;;;;;;19.59;52.41;92778.56;5016727;28;20829;-95
2021/08/31 09:36:09;;;;;;;1.02;0.77;;;;;;;19.04;55.18;92771.97;5021985;28;20049;-94
2021/08/31 09:38:40;;;;;;;0.40;0.40;;;;;;;19.38;53.80;92769.97;5003918;28;20052;-94
2021/08/31 09:41:06;;;;;;;0.50;0.47;;;;;;;19.43;54.03;92759.09;4984299;28;20553;-94
2021/08/31 09:43:48;;;;;;;1.38;0.50;;;;;;;18.96;55.24;92773.63;4985645;28;20037;-94
2021/08/31 09:46:14;;;;;;;1.00;0.73;;;;;;;19.43;54.05;92772.38;5001238;28;20495;-95
2021/08/31 09:48:43;;;;;;;1.40;0.70;;;;;;;19.45;52.55;92764.84;4986029;28;20117;-95
2021/08/31 09:51:13;;;;;;;0.85;0.60;;;;;;;19.08;53.80;92763.00;5021730;28;20055;-94
2021/08/31 09:53:42;;;;;;;1.00;0.57;;;;;;;19.03;53.65;92762.47;5003731;28;20050;-94
2021/08/31 09:56:35;;;;;;;0.47;0.47;;;;;;;19.14;53.64;92764.34;5020410;28;20075;-93
2021/08/31 09:59:03;;;;;;;0.70;0.60;;;;;;;19.31;53.53;92760.66;4972671;28;20050;-94
2021/08/31 10:01:38;;;;;;;0.40;0.40;;;;;;;19.88;52.31;92771.44;4980983;28;20055;-94
2021/08/31 10:04:04;;;;;;;1.17;0.50;;;;;;;20.15;49.55;92783.97;4997624;28;20042;-95
2021/08/31 10:06:34;;;;;;;0.57;0.57;;;;;;;20.02;50.54;92777.16;4997037;28;20105;-94
2021/08/31 10:09:02;;;;;;;0.60;0.50;;;;;;;19.97;52.51;92772.06;4983817;28;20046;-94
2021/08/31 10:11:29;;;;;;;0.77;0.55;;;;;;;20.29;51.83;92772.97;4983403;28;20065;-95
2021/08/31 10:14:01;;;;;;;0.80;0.63;;;;;;;20.42;49.67;92773.66;5001720;28;20038;-95
2021/08/31 10:16:33;;;;;;;0.95;0.50;;;;;;;20.53;53.08;92782.69;4986478;28;20096;-95
2021/08/31 10:21:38;;;;;;;1.08;0.75;;;;;;;20.47;50.90;92783.28;4955934;29;20062;-76
2021/08/31 10:24:05;;;;;;;0.50;0.50;;;;;;;20.67;53.90;92792.16;4955813;29;20043;-77
2021/08/31 10:26:34;;;;;;;1.38;0.77;;;;;;;21.47;50.79;92785.75;4938175;29;20051;-76
2021/08/31 10:29:14;;;;;;;1.95;0.60;;;;;;;21.39;49.83;92787.47;4954567;29;20047;-76
2021/08/31 10:31:42;;;;;;;0.57;0.55;;;;;;;21.56;50.79;92782.91;4952841;29;20545;-77
2021/08/31 10:34:29;;;;;;;0.85;0.60;;;;;;;21.94;49.92;92786.75;4938103;29;20058;-76
2021/08/31 10:37:09;;;;;;;0.65;0.50;;;;;;;21.85;48.04;92789.63;4953585;29;20078;-76
2021/08/31 10:39:55;;;;;;;0.68;0.65;;;;;;;21.22;48.85;92779.84;4932806;29;20524;-76
2021/08/31 10:42:26;;;;;;;1.55;0.85;;;;;;;21.56;48.77;92772.25;4950743;28;20059;-76
2021/08/31 10:44:53;;;;;;;0.45;0.43;;;;;;;21.50;48.74;92770.97;4954000;29;20090;-77
2021/08/31 10:47:27;;;;;;;0.60;0.60;;;;;;;20.58;49.36;92782.47;4954523;29;20402;-76
2021/08/31 10:49:59;;;;;;;1.33;0.65;;;;;;;20.41;49.68;92779.31;4919373;29;20039;-77
2021/08/31 10:52:35;;;;;;;0.65;0.63;;;;;;;20.83;48.73;92782.34;4937565;29;20043;-76
2021/08/31 10:55:02;;;;;;;0.40;0.40;;;;;;;20.72;48.97;92775.97;4954226;29;20046;-77
2021/08/31 10:57:37;;;;;;;1.25;0.70;;;;;;;20.74;49.09;92771.84;4954364;29;20596;-77
2021/08/31 11:00:03;;;;;;;1.05;0.50;;;;;;;20.83;50.42;92774.34;4910804;29;20043;-77
2021/08/31 11:02:47;;;;;;;0.98;0.70;;;;;;;20.81;50.19;92773.91;4935149;29;20501;-76
2021/08/31 11:05:25;;;;;;;0.90;0.60;;;;;;;20.97;50.63;92768.59;4935274;29;20157;-77
2021/08/31 11:08:12;;;;;;;0.40;0.40;;;;;;;20.89;49.69;92757.00;4933982;29;20043;-77
2021/08/31 11:10:43;;;;;;;2.13;1.10;;;;;;;21.11;51.78;92757.53;4947634;29;20121;-77
2021/08/31 11:13:08;;;;;;;0.95;0.60;;;;;;;21.13;50.99;92760.59;4949853;29;20047;-77
2021/08/31 11:15:35;;;;;;;1.15;0.73;;;;;;;21.37;52.28;92776.38;4937265;29;20039;-77
2021/08/31 11:18:00;;;;;;;3.03;0.85;;;;;;;21.31;51.46;92771.66;4953591;29;20068;-77
2021/08/31 11:20:33;;;;;;;1.45;0.80;;;;;;;21.92;51.28;92767.69;4933254;29;20058;-76
2021/08/31 11:23:06;;;;;;;1.27;0.73;;;;;;;21.24;53.18;92766.94;4920826;29;20054;-76
2021/08/31 11:25:39;;;;;;;0.75;0.70;;;;;;;20.77;54.89;92775.72;4953556;29;20106;-76
2021/08/31 11:28:07;;;;;;;1.15;0.90;;;;;;;21.06;55.03;92768.44;4936584;29;20074;-77
2021/08/31 11:31:02;;;;;;;2.50;1.27;;;;;;;21.58;52.35;92757.47;4949266;29;20039;-77
2021/08/31 11:33:30;;;;;;;1.48;0.98;;;;;;;21.53;53.46;92763.06;4951221;29;20051;-76
2021/08/31 11:36:17;;;;;;;1.95;1.13;;;;;;;21.49;52.87;92761.44;4936300;29;20063;-77
2021/08/31 11:38:57;;;;;;;1.10;0.70;;;;;;;21.35;53.06;92759.22;4952165;29;20039;-77
2021/08/31 11:41:27;;;;;;;1.23;0.90;;;;;;;21.65;52.79;92756.84;4948165;29;20413;-76
2021/08/31 11:44:21;;;;;;;1.17;0.80;;;;;;;21.61;53.25;92758.66;4928610;29;20056;-76
2021/08/31 11:46:49;;;;;;;1.35;0.85;;;;;;;21.40;53.40;92770.38;4935038;29;20589;-77
2021/08/31 11:49:27;;;;;;;1.70;1.05;;;;;;;21.23;54.92;92760.06;4936174;28;20035;-77
2021/08/31 11:52:03;;;;;;;1.33;1.10;;;;;;;20.67;55.19;92765.56;4930989;29;20051;-77
2021/08/31 11:54:38;;;;;;;1.85;1.30;;;;;;;21.03;55.51;92756.59;4934371;29;20456;-77
2021/08/31 11:57:06;;;;;;;3.53;1.05;;;;;;;20.50;55.22;92762.09;4916687;29;20075;-77
2021/08/31 11:59:42;;;;;;;1.63;0.90;;;;;;;20.26;57.54;92764.88;4935035;29;20042;-77
2021/08/31 12:02:12;;;;;;;1.92;1.13;;;;;;;20.23;57.98;92766.31;4927637;29;20515;-77
2021/08/31 12:04:38;;;;;;;0.95;0.68;;;;;;;19.98;57.97;92773.63;4953431;29;20058;-77
2021/08/31 12:07:07;;;;;;;2.20;1.30;;;;;;;20.05;58.08;92773.81;4952898;29;20592;-76
2021/08/31 12:09:33;;;;;;;3.85;1.00;;;;;;;20.01;57.23;92767.63;4953342;29;20615;-77